Time;durP1;ratioP1;P1;durP2;ratioP2;P2;SDS_P1;SDS_P2;PMS_P1;PMS_P2;Temp;Humidity;BMP_temperature;BMP_pressure;BME280_temperature;BME280_humidity;BME280_pressure;Samples;Min_cycle;Max_cycle;Signal;HPM_P1;HPM_P2
2023/12/10 00:01:20;;;;;;;4.32;1.35;;;8.10;99.90;;;;;;5039605;28;20203;-72
2023/12/10 00:03:48;;;;;;;3.25;1.40;;;8.10;99.90;;;;;;5033666;28;20287;-71
2023/12/10 00:06:16;;;;;;;3.85;1.30;;;8.10;99.90;;;;;;5037250;28;20205;-71
2023/12/10 00:08:44;;;;;;;4.00;1.42;;;8.10;99.90;;;;;;5030061;28;20224;-71
2023/12/10 00:11:12;;;;;;;3.25;1.52;;;8.10;99.90;;;;;;5031572;28;20200;-72
2023/12/10 00:13:40;;;;;;;7.78;1.90;;;8.10;99.90;;;;;;5030797;28;20660;-72
2023/12/10 00:16:13;;;;;;;6.28;1.58;;;8.10;99.90;;;;;;5030259;28;20212;-71
2023/12/10 00:18:41;;;;;;;2.75;1.23;;;8.10;99.90;;;;;;5030215;28;20232;-72
2023/12/10 00:21:13;;;;;;;2.78;1.50;;;8.00;99.90;;;;;;5030389;28;20248;-71
2023/12/10 00:23:41;;;;;;;2.72;1.20;;;8.00;99.90;;;;;;5030430;28;20236;-72
2023/12/10 00:26:09;;;;;;;10.07;1.95;;;7.90;99.90;;;;;;5030721;28;20687;-72
2023/12/10 00:28:37;;;;;;;2.42;1.48;;;7.90;99.90;;;;;;5034705;28;20228;-72
2023/12/10 00:31:08;;;;;;;3.08;1.00;;;8.00;99.90;;;;;;5037008;28;20211;-72
2023/12/10 00:33:38;;;;;;;3.03;1.20;;;8.00;99.90;;;;;;5051052;28;20218;-71
2023/12/10 00:36:07;;;;;;;4.03;1.70;;;8.10;99.90;;;;;;5034074;28;20293;-71
2023/12/10 00:38:38;;;;;;;6.10;2.15;;;8.00;99.90;;;;;;5035430;28;20243;-71
2023/12/10 00:41:07;;;;;;;2.47;0.95;;;7.90;99.90;;;;;;5042538;28;20311;-72
2023/12/10 00:43:35;;;;;;;3.13;1.15;;;7.80;99.90;;;;;;5037750;28;20682;-72
2023/12/10 00:46:02;;;;;;;5.43;1.70;;;7.80;99.90;;;;;;5034648;28;20600;-72
2023/12/10 00:48:30;;;;;;;3.65;1.67;;;7.80;99.90;;;;;;5039621;28;20224;-71
2023/12/10 00:51:00;;;;;;;6.95;2.10;;;7.80;99.90;;;;;;5033752;28;20240;-71
2023/12/10 00:53:28;;;;;;;8.07;2.10;;;7.90;99.90;;;;;;5033773;28;20666;-71
2023/12/10 00:55:56;;;;;;;3.88;2.35;;;7.90;99.90;;;;;;5033479;28;20209;-72
2023/12/10 00:58:24;;;;;;;4.72;1.60;;;7.80;99.90;;;;;;5033136;28;20711;-72
2023/12/10 01:00:52;;;;;;;3.10;1.10;;;7.90;99.90;;;;;;5040364;28;20226;-72
2023/12/10 01:03:20;;;;;;;5.85;1.83;;;7.90;99.90;;;;;;5053443;28;20292;-71
2023/12/10 01:05:49;;;;;;;13.60;2.13;;;8.00;99.90;;;;;;5036924;28;20236;-70
2023/12/10 01:08:18;;;;;;;2.78;1.40;;;8.10;99.90;;;;;;5032941;28;20251;-72
2023/12/10 01:10:48;;;;;;;7.45;1.50;;;8.10;99.90;;;;;;5033700;28;20677;-71
2023/12/10 01:13:15;;;;;;;6.93;1.80;;;8.10;99.90;;;;;;5038755;28;20847;-72
2023/12/10 01:15:43;;;;;;;7.95;2.17;;;8.10;99.90;;;;;;5037391;28;20204;-71
2023/12/10 01:18:12;;;;;;;6.63;2.00;;;8.20;99.90;;;;;;5041183;28;20346;-71
2023/12/10 01:20:40;;;;;;;5.20;1.83;;;8.20;99.90;;;;;;5033146;28;20227;-73
2023/12/10 01:23:09;;;;;;;5.43;2.25;;;8.40;99.90;;;;;;5033181;28;20274;-71
2023/12/10 01:25:38;;;;;;;6.95;1.70;;;8.50;99.90;;;;;;5032943;28;20216;-70
2023/12/10 01:28:06;;;;;;;5.82;1.80;;;8.50;99.90;;;;;;5032564;28;20224;-70
2023/12/10 01:30:34;;;;;;;7.50;2.03;;;8.40;99.90;;;;;;5035599;28;21068;-70
2023/12/10 01:33:02;;;;;;;4.75;2.30;;;8.30;99.90;;;;;;5044373;28;20242;-70
2023/12/10 01:35:30;;;;;;;12.43;2.97;;;8.40;99.90;;;;;;5038925;28;20212;-70
2023/12/10 01:37:59;;;;;;;4.70;1.90;;;8.40;99.90;;;;;;5037318;28;20233;-70
2023/12/10 01:40:27;;;;;;;5.28;1.75;;;8.40;99.90;;;;;;5032835;28;20224;-70
2023/12/10 01:42:56;;;;;;;8.77;3.58;;;8.50;99.90;;;;;;5032558;28;20209;-70
2023/12/10 01:45:24;;;;;;;5.70;1.35;;;8.60;99.90;;;;;;5032971;28;20213;-71
2023/12/10 01:47:52;;;;;;;5.93;1.80;;;8.60;99.90;;;;;;5032112;28;20707;-69
2023/12/10 01:50:21;;;;;;;8.27;2.33;;;8.60;99.90;;;;;;5032384;28;20204;-70
2023/12/10 01:52:50;;;;;;;2.90;1.52;;;8.60;99.90;;;;;;5032513;28;20631;-70
2023/12/10 01:55:19;;;;;;;4.53;1.77;;;8.60;99.90;;;;;;5032687;28;20213;-71
2023/12/10 01:57:47;;;;;;;6.97;2.08;;;8.60;99.90;;;;;;5032082;28;20290;-71
2023/12/10 02:00:18;;;;;;;7.72;2.28;;;8.60;99.90;;;;;;5032496;28;20315;-70
2023/12/10 02:02:47;;;;;;;5.32;1.92;;;8.60;99.90;;;;;;5043682;28;20741;-71
2023/12/10 02:05:14;;;;;;;4.70;1.92;;;8.60;99.90;;;;;;5033730;28;20691;-70
2023/12/10 02:07:43;;;;;;;2.33;1.25;;;8.70;99.90;;;;;;5032154;28;20303;-70
2023/12/10 02:10:11;;;;;;;11.30;2.25;;;8.60;99.90;;;;;;5032182;28;20592;-71
2023/12/10 02:12:40;;;;;;;6.38;1.90;;;8.60;99.90;;;;;;5038434;28;20208;-70
2023/12/10 02:15:14;;;;;;;4.68;1.83;;;8.60;99.90;;;;;;5033089;28;20300;-71
2023/12/10 02:17:43;;;;;;;6.32;1.92;;;8.50;99.90;;;;;;5032074;28;20315;-71
2023/12/10 02:20:13;;;;;;;9.90;2.45;;;8.50;99.90;;;;;;5032179;28;20262;-72
2023/12/10 02:22:47;;;;;;;10.65;1.92;;;8.40;99.90;;;;;;5032181;28;20208;-71
2023/12/10 02:25:19;;;;;;;3.10;1.40;;;8.40;99.90;;;;;;5031799;28;20208;-71
2023/12/10 02:27:49;;;;;;;3.75;1.27;;;8.40;99.90;;;;;;5031716;28;20290;-71
2023/12/10 02:30:17;;;;;;;6.03;1.88;;;8.40;99.90;;;;;;5032111;28;20540;-71
2023/12/10 02:32:45;;;;;;;7.38;1.30;;;8.40;99.90;;;;;;5045562;28;20635;-71
2023/12/10 02:35:13;;;;;;;3.25;1.35;;;8.40;99.90;;;;;;5031366;28;20252;-71
2023/12/10 02:37:41;;;;;;;3.38;1.05;;;8.40;99.90;;;;;;5045536;28;20232;-71
2023/12/10 02:40:10;;;;;;;4.68;1.23;;;8.40;99.90;;;;;;5032054;28;20216;-72
2023/12/10 02:42:38;;;;;;;3.65;1.20;;;8.40;99.90;;;;;;5031778;28;20223;-71
2023/12/10 02:45:08;;;;;;;5.47;1.15;;;8.40;99.90;;;;;;5031437;28;20208;-72
2023/12/10 02:47:37;;;;;;;2.55;0.90;;;8.40;99.90;;;;;;5036623;28;20207;-69
2023/12/10 02:50:06;;;;;;;8.55;1.73;;;8.40;99.90;;;;;;5033669;28;20212;-72
2023/12/10 02:52:35;;;;;;;9.90;2.70;;;8.40;99.90;;;;;;5031258;28;20276;-71
2023/12/10 02:55:03;;;;;;;2.58;2.03;;;8.30;99.90;;;;;;5030966;28;20212;-70
2023/12/10 02:57:31;;;;;;;3.78;1.30;;;8.40;99.90;;;;;;5030437;28;20208;-71
2023/12/10 02:59:59;;;;;;;12.82;2.03;;;8.30;99.90;;;;;;5031255;28;20217;-70
2023/12/10 03:02:28;;;;;;;7.50;1.50;;;8.30;99.90;;;;;;5037332;28;20217;-71
2023/12/10 03:04:57;;;;;;;7.43;1.92;;;8.30;99.90;;;;;;5031110;28;20208;-70
2023/12/10 03:07:25;;;;;;;2.50;1.30;;;8.30;99.90;;;;;;5030887;28;20654;-70
2023/12/10 03:09:53;;;;;;;4.72;1.17;;;8.20;99.90;;;;;;5031185;28;20215;-71
2023/12/10 03:12:20;;;;;;;4.28;0.95;;;8.20;99.90;;;;;;5030948;28;20283;-72
2023/12/10 03:14:48;;;;;;;6.15;1.45;;;8.30;99.90;;;;;;5030972;28;20536;-73
2023/12/10 03:17:16;;;;;;;5.65;2.38;;;8.40;99.90;;;;;;5030887;28;20208;-73
2023/12/10 03:19:46;;;;;;;5.53;1.40;;;8.40;99.90;;;;;;5030969;28;20259;-73
2023/12/10 03:22:14;;;;;;;5.65;1.52;;;8.40;99.90;;;;;;5039230;28;20271;-71
2023/12/10 03:24:42;;;;;;;3.80;0.60;;;8.40;99.90;;;;;;5030740;28;20216;-73
2023/12/10 03:27:10;;;;;;;6.75;1.20;;;8.40;99.90;;;;;;5038940;28;20212;-72
2023/12/10 03:29:38;;;;;;;8.13;1.75;;;8.30;99.90;;;;;;5030942;28;20232;-73
2023/12/10 03:32:06;;;;;;;5.32;2.55;;;8.20;99.90;;;;;;5045828;28;20612;-73
2023/12/10 03:34:34;;;;;;;6.30;1.30;;;8.10;99.90;;;;;;5040775;28;20255;-72
2023/12/10 03:37:04;;;;;;;7.07;1.40;;;7.90;99.90;;;;;;5043377;28;20199;-71
2023/12/10 03:39:32;;;;;;;7.22;2.53;;;7.80;99.90;;;;;;5038092;28;20239;-72
2023/12/10 03:42:00;;;;;;;5.95;2.00;;;7.80;99.90;;;;;;5030754;28;20232;-73
2023/12/10 03:44:31;;;;;;;5.85;2.33;;;7.80;99.90;;;;;;5030421;28;20682;-72
2023/12/10 03:47:01;;;;;;;3.33;1.15;;;7.70;99.90;;;;;;5030503;28;20264;-72
2023/12/10 03:49:29;;;;;;;7.05;1.80;;;7.70;99.90;;;;;;5043723;28;20282;-71
2023/12/10 03:51:58;;;;;;;6.75;2.35;;;7.60;99.90;;;;;;5042343;28;20287;-72
2023/12/10 03:54:27;;;;;;;4.28;2.10;;;7.60;99.90;;;;;;5030403;28;20200;-73
2023/12/10 03:56:55;;;;;;;5.15;1.30;;;7.70;99.90;;;;;;5030388;28;20672;-73
2023/12/10 03:59:23;;;;;;;3.35;1.45;;;7.70;99.90;;;;;;5030067;28;20321;-71
2023/12/10 04:01:51;;;;;;;4.45;1.50;;;7.70;99.90;;;;;;5037505;28;20232;-71
2023/12/10 04:04:19;;;;;;;7.88;1.85;;;7.80;99.90;;;;;;5040258;28;20216;-72
2023/12/10 04:06:47;;;;;;;3.75;1.27;;;7.80;99.90;;;;;;5036079;28;20207;-74
2023/12/10 04:09:15;;;;;;;8.57;1.42;;;7.80;99.90;;;;;;5032167;28;20640;-72
2023/12/10 04:11:44;;;;;;;2.92;1.42;;;7.80;99.90;;;;;;5039786;28;20217;-72
2023/12/10 04:14:12;;;;;;;6.25;1.52;;;7.80;99.90;;;;;;5036510;28;20208;-71
2023/12/10 04:16:40;;;;;;;5.00;1.25;;;7.90;99.90;;;;;;5035343;28;20207;-72
2023/12/10 04:19:08;;;;;;;3.72;1.13;;;7.90;99.90;;;;;;5041377;28;20219;-72
2023/12/10 04:21:36;;;;;;;2.58;1.10;;;7.90;99.90;;;;;;5034311;28;20216;-72
2023/12/10 04:24:05;;;;;;;2.45;1.48;;;7.90;99.90;;;;;;5034195;28;20236;-72
2023/12/10 04:26:33;;;;;;;4.82;1.40;;;7.90;99.90;;;;;;5037084;28;20211;-72
2023/12/10 04:29:02;;;;;;;2.40;0.90;;;7.80;99.90;;;;;;5043539;28;20232;-71
2023/12/10 04:31:30;;;;;;;9.52;1.50;;;7.80;99.90;;;;;;5044390;28;20236;-74
2023/12/10 04:33:58;;;;;;;2.33;0.95;;;7.80;99.90;;;;;;5047286;28;20211;-72
2023/12/10 04:36:26;;;;;;;3.33;1.00;;;7.70;99.90;;;;;;5046171;28;20210;-72
2023/12/10 04:38:54;;;;;;;3.88;1.65;;;7.60;99.90;;;;;;5046113;28;20255;-72
2023/12/10 04:41:22;;;;;;;2.88;1.23;;;7.50;99.90;;;;;;5035092;28;20737;-71
2023/12/10 04:43:50;;;;;;;4.88;1.10;;;7.50;99.90;;;;;;5035299;28;20197;-72
2023/12/10 04:46:19;;;;;;;6.25;1.85;;;7.50;99.90;;;;;;5039135;28;20211;-72
2023/12/10 04:48:47;;;;;;;4.57;1.25;;;7.50;99.90;;;;;;5033737;28;20220;-72
2023/12/10 04:51:15;;;;;;;5.10;1.95;;;7.40;99.90;;;;;;5033886;28;20208;-72
2023/12/10 04:53:43;;;;;;;3.92;1.08;;;7.40;99.90;;;;;;5033791;28;20291;-72
2023/12/10 04:56:11;;;;;;;2.75;1.05;;;7.40;99.90;;;;;;5033340;28;20208;-72
2023/12/10 04:58:39;;;;;;;5.53;1.58;;;7.30;99.90;;;;;;5037325;28;20270;-74
2023/12/10 05:01:07;;;;;;;4.63;1.33;;;7.30;99.90;;;;;;5040996;28;20199;-72
2023/12/10 05:03:36;;;;;;;5.88;1.60;;;7.40;99.90;;;;;;5041606;28;20220;-72
2023/12/10 05:06:05;;;;;;;4.38;1.38;;;7.30;99.90;;;;;;5033125;28;20841;-72
2023/12/10 05:08:33;;;;;;;8.40;2.25;;;7.40;99.90;;;;;;5033147;28;20303;-72
2023/12/10 05:11:01;;;;;;;3.65;1.08;;;7.40;99.90;;;;;;5033507;28;20215;-72
2023/12/10 05:13:30;;;;;;;4.15;1.10;;;7.30;99.90;;;;;;5033528;28;20212;-73
2023/12/10 05:15:58;;;;;;;5.43;1.25;;;7.30;99.90;;;;;;5038065;28;20214;-74
2023/12/10 05:18:26;;;;;;;6.40;1.58;;;7.30;99.90;;;;;;5035033;28;20568;-73
2023/12/10 05:20:55;;;;;;;5.65;1.38;;;7.40;99.90;;;;;;5038687;28;20201;-73
2023/12/10 05:23:23;;;;;;;3.78;1.08;;;7.50;99.90;;;;;;5032865;28;20228;-72
2023/12/10 05:25:51;;;;;;;2.88;0.82;;;7.50;99.90;;;;;;5032680;28;20291;-73
2023/12/10 05:28:19;;;;;;;3.78;1.10;;;7.50;99.90;;;;;;5040464;28;20228;-72
2023/12/10 05:30:47;;;;;;;3.25;0.90;;;7.50;99.90;;;;;;5048022;28;20219;-72
2023/12/10 05:33:16;;;;;;;6.47;2.85;;;7.40;99.90;;;;;;5048763;28;20257;-72
2023/12/10 05:35:44;;;;;;;4.97;1.02;;;7.40;99.90;;;;;;5032869;28;20553;-72
2023/12/10 05:38:13;;;;;;;5.97;1.73;;;7.40;99.90;;;;;;5032940;28;20243;-72
2023/12/10 05:40:41;;;;;;;2.65;1.00;;;7.40;99.90;;;;;;5032989;28;20286;-72
2023/12/10 05:43:09;;;;;;;4.50;1.30;;;7.40;99.90;;;;;;5040543;28;20219;-72
2023/12/10 05:45:37;;;;;;;4.15;1.45;;;7.40;99.90;;;;;;5043476;28;20212;-72
2023/12/10 05:48:05;;;;;;;1.40;0.90;;;7.40;99.90;;;;;;5032716;28;20235;-73
2023/12/10 05:50:33;;;;;;;8.60;2.20;;;7.40;99.90;;;;;;5032572;28;20219;-72
2023/12/10 05:53:03;;;;;;;6.00;3.05;;;7.40;99.90;;;;;;5032692;28;20655;-73
2023/12/10 05:55:33;;;;;;;3.08;1.08;;;7.40;99.90;;;;;;5032101;28;20270;-73
2023/12/10 05:58:00;;;;;;;7.47;2.20;;;7.40;99.90;;;;;;5032195;28;20232;-74
2023/12/10 06:00:28;;;;;;;3.60;1.45;;;7.40;99.90;;;;;;5034847;28;20243;-73
2023/12/10 06:02:56;;;;;;;5.63;1.52;;;7.40;99.90;;;;;;5044032;28;20220;-74
2023/12/10 06:05:24;;;;;;;2.78;1.30;;;7.40;99.90;;;;;;5042407;28;20212;-73
2023/12/10 06:07:52;;;;;;;3.53;1.50;;;7.50;99.90;;;;;;5032162;28;20224;-74
2023/12/10 06:10:20;;;;;;;4.47;1.70;;;7.50;99.90;;;;;;5032085;28;20208;-74
2023/12/10 06:12:50;;;;;;;7.07;2.22;;;7.50;99.90;;;;;;5035392;28;20277;-70
2023/12/10 06:15:18;;;;;;;4.65;2.10;;;7.50;99.90;;;;;;5032982;28;20717;-68
2023/12/10 06:17:46;;;;;;;10.52;2.45;;;7.50;99.90;;;;;;5032740;28;20225;-66
2023/12/10 06:20:15;;;;;;;8.30;1.85;;;7.50;99.90;;;;;;5038152;28;20216;-69
2023/12/10 06:22:43;;;;;;;3.75;2.25;;;7.60;99.90;;;;;;5037838;28;20223;-68
2023/12/10 06:25:11;;;;;;;3.45;1.25;;;7.70;99.90;;;;;;5038671;28;20587;-69
2023/12/10 06:27:39;;;;;;;7.43;1.95;;;7.80;99.90;;;;;;5036062;28;20205;-70
2023/12/10 06:30:09;;;;;;;4.15;1.15;;;7.80;99.90;;;;;;5036641;28;20265;-70
2023/12/10 06:32:37;;;;;;;5.85;1.65;;;7.80;99.90;;;;;;5038132;28;20207;-69
2023/12/10 06:35:06;;;;;;;6.45;1.73;;;7.80;99.90;;;;;;5038265;28;20212;-69
2023/12/10 06:37:37;;;;;;;3.90;1.52;;;7.80;99.90;;;;;;5037836;28;20242;-69
2023/12/10 06:40:06;;;;;;;4.35;1.63;;;7.80;99.90;;;;;;5038919;28;20622;-71
2023/12/10 06:42:35;;;;;;;5.35;1.80;;;7.80;99.90;;;;;;5038208;28;20769;-69
2023/12/10 06:45:05;;;;;;;3.00;1.95;;;7.80;99.90;;;;;;5038339;28;20262;-69
2023/12/10 06:47:34;;;;;;;9.32;2.30;;;7.90;99.90;;;;;;5038686;28;20705;-70
2023/12/10 06:50:03;;;;;;;4.68;2.30;;;7.80;99.90;;;;;;5036483;28;20212;-71
2023/12/10 06:52:31;;;;;;;4.22;1.40;;;7.80;99.90;;;;;;5037983;28;20586;-69
2023/12/10 06:54:59;;;;;;;7.47;1.15;;;7.80;99.90;;;;;;5036698;28;20295;-69
2023/12/10 06:57:28;;;;;;;5.07;2.17;;;7.80;99.90;;;;;;5038811;28;20219;-69
2023/12/10 06:59:56;;;;;;;1.83;0.90;;;7.80;99.90;;;;;;5035942;28;20204;-69
2023/12/10 07:02:27;;;;;;;2.63;0.90;;;7.80;99.90;;;;;;5034691;28;20208;-70
2023/12/10 07:04:56;;;;;;;6.57;1.85;;;7.80;99.90;;;;;;5036550;28;20291;-70
2023/12/10 07:07:24;;;;;;;3.22;1.35;;;7.80;99.90;;;;;;5035666;28;20247;-71
2023/12/10 07:09:52;;;;;;;6.47;1.50;;;7.70;99.90;;;;;;5036815;28;20207;-71
2023/12/10 07:12:20;;;;;;;2.15;0.98;;;7.70;99.90;;;;;;5038894;28;20273;-69
2023/12/10 07:14:48;;;;;;;4.75;1.48;;;7.70;99.90;;;;;;5037937;28;20232;-68
2023/12/10 07:17:18;;;;;;;8.75;1.48;;;7.70;99.90;;;;;;5038300;28;20686;-69
2023/12/10 07:19:46;;;;;;;6.95;1.73;;;7.70;99.90;;;;;;5036360;28;20229;-69
2023/12/10 07:22:16;;;;;;;14.25;2.80;;;7.70;99.90;;;;;;5038665;28;20208;-70
2023/12/10 07:24:44;;;;;;;8.00;1.77;;;7.70;99.90;;;;;;5035790;28;20886;-68
2023/12/10 07:27:12;;;;;;;4.07;1.52;;;7.70;99.90;;;;;;5038757;28;20690;-69
2023/12/10 07:29:40;;;;;;;4.97;1.65;;;7.70;99.90;;;;;;5037018;28;20220;-69
2023/12/10 07:32:08;;;;;;;2.38;1.20;;;7.80;99.90;;;;;;5038015;28;20199;-71
2023/12/10 07:34:36;;;;;;;4.05;1.25;;;7.70;99.90;;;;;;5037512;28;20234;-69
2023/12/10 07:37:04;;;;;;;3.75;1.63;;;7.80;99.90;;;;;;5038105;28;20620;-69
2023/12/10 07:39:34;;;;;;;2.05;1.58;;;7.80;99.90;;;;;;5035761;28;20246;-71
2023/12/10 07:42:02;;;;;;;2.10;1.02;;;7.80;99.90;;;;;;5037318;28;20208;-70
2023/12/10 07:44:31;;;;;;;4.80;1.73;;;7.80;99.90;;;;;;5037393;28;20247;-71
2023/12/10 07:46:59;;;;;;;6.07;1.58;;;7.80;99.90;;;;;;5037628;28;20196;-69
2023/12/10 07:49:27;;;;;;;5.00;1.50;;;7.80;99.90;;;;;;5014943;28;20239;-69
2023/12/10 07:51:56;;;;;;;7.30;1.85;;;7.90;99.90;;;;;;5035221;28;20742;-69
2023/12/10 07:54:27;;;;;;;6.55;1.88;;;7.90;99.90;;;;;;5033605;28;20322;-69
2023/12/10 07:56:57;;;;;;;7.43;1.90;;;8.00;99.90;;;;;;5037309;28;20602;-70
2023/12/10 07:59:25;;;;;;;4.20;1.25;;;8.00;99.90;;;;;;5035870;28;20243;-70
2023/12/10 08:01:53;;;;;;;6.15;2.42;;;8.10;99.90;;;;;;5036827;28;20682;-70
2023/12/10 08:04:21;;;;;;;3.42;1.08;;;8.10;99.90;;;;;;5035942;28;20235;-72
2023/12/10 08:06:51;;;;;;;1.85;0.98;;;8.10;99.90;;;;;;5035649;28;20558;-69
2023/12/10 08:09:19;;;;;;;3.95;1.60;;;8.20;99.90;;;;;;5035162;28;20305;-70
2023/12/10 08:11:47;;;;;;;3.40;1.42;;;8.20;99.90;;;;;;5036092;28;20665;-69
2023/12/10 08:14:16;;;;;;;2.83;0.77;;;8.20;99.90;;;;;;5035309;28;20556;-72
2023/12/10 08:16:45;;;;;;;5.07;2.83;;;8.30;99.90;;;;;;5036501;28;20751;-70
2023/12/10 08:19:13;;;;;;;4.40;1.52;;;8.30;99.90;;;;;;5036075;28;20220;-69
2023/12/10 08:21:44;;;;;;;4.55;1.52;;;8.40;99.90;;;;;;5034641;28;20306;-69
2023/12/10 08:24:12;;;;;;;2.92;1.15;;;8.40;99.90;;;;;;5035262;28;20227;-69
2023/12/10 08:26:42;;;;;;;3.17;1.35;;;8.40;99.90;;;;;;5037032;28;20192;-69
2023/12/10 08:29:10;;;;;;;6.20;1.45;;;8.50;99.90;;;;;;5035192;28;20244;-67
2023/12/10 08:31:40;;;;;;;2.35;2.15;;;8.50;99.90;;;;;;5034794;28;20217;-68
2023/12/10 08:34:08;;;;;;;3.47;1.30;;;8.60;99.90;;;;;;5036304;28;20555;-69
2023/12/10 08:36:37;;;;;;;3.55;1.38;;;8.60;99.90;;;;;;5019451;28;20209;-68
2023/12/10 08:39:06;;;;;;;8.57;1.85;;;8.60;99.90;;;;;;5036504;28;20610;-69
2023/12/10 08:41:35;;;;;;;2.35;1.35;;;8.70;99.90;;;;;;5031440;28;20243;-68
2023/12/10 08:44:03;;;;;;;5.65;1.15;;;8.80;99.90;;;;;;5015106;28;20627;-70
2023/12/10 08:46:31;;;;;;;3.35;1.38;;;8.80;99.90;;;;;;5035893;28;20216;-70
2023/12/10 08:49:00;;;;;;;2.45;1.00;;;8.70;99.90;;;;;;5035393;28;20251;-70
2023/12/10 08:51:29;;;;;;;4.18;1.58;;;9.10;99.90;;;;;;5034886;28;20238;-72
2023/12/10 08:53:59;;;;;;;3.13;1.30;;;9.10;99.90;;;;;;5035558;28;20200;-71
2023/12/10 08:56:27;;;;;;;7.40;1.95;;;9.10;99.90;;;;;;5038109;28;20203;-69
2023/12/10 08:58:55;;;;;;;5.05;1.60;;;9.20;99.90;;;;;;5039916;28;20723;-70
2023/12/10 09:01:23;;;;;;;3.63;1.05;;;9.30;99.90;;;;;;5038830;28;20663;-69
2023/12/10 09:03:51;;;;;;;5.20;1.20;;;9.30;99.90;;;;;;5021881;28;20703;-71
2023/12/10 09:06:21;;;;;;;4.85;1.80;;;9.40;99.90;;;;;;5039352;28;20227;-69
2023/12/10 09:08:49;;;;;;;2.35;1.27;;;9.50;99.90;;;;;;5038978;28;20215;-70
2023/12/10 09:11:19;;;;;;;4.55;1.30;;;9.50;99.90;;;;;;5038495;28;20339;-69
2023/12/10 09:13:47;;;;;;;1.38;0.70;;;9.60;99.90;;;;;;5037969;28;20215;-70
2023/12/10 09:16:17;;;;;;;4.88;1.23;;;9.60;99.90;;;;;;5039827;28;20522;-70
2023/12/10 09:18:45;;;;;;;7.38;1.55;;;9.60;99.90;;;;;;5037963;28;21087;-69
2023/12/10 09:21:13;;;;;;;3.17;1.77;;;9.60;99.90;;;;;;5037290;28;20850;-69
2023/12/10 09:23:43;;;;;;;1.40;0.88;;;9.60;99.90;;;;;;5038085;28;20680;-72
2023/12/10 09:26:11;;;;;;;2.80;1.60;;;9.60;99.90;;;;;;5038547;28;20208;-70
2023/12/10 09:28:39;;;;;;;3.58;0.93;;;9.60;99.90;;;;;;5039728;28;20216;-70
2023/12/10 09:31:07;;;;;;;5.18;1.33;;;9.60;99.90;;;;;;5038577;28;20196;-69
2023/12/10 09:33:35;;;;;;;2.65;1.13;;;9.70;99.90;;;;;;5037925;28;20695;-73
2023/12/10 09:36:04;;;;;;;3.78;1.42;;;9.70;99.90;;;;;;5039358;28;20208;-72
2023/12/10 09:38:32;;;;;;;2.05;0.90;;;9.70;99.90;;;;;;5038512;28;20238;-71
2023/12/10 09:41:01;;;;;;;7.35;1.33;;;9.70;99.90;;;;;;5037574;28;20204;-74
2023/12/10 09:43:29;;;;;;;8.32;1.65;;;9.80;99.90;;;;;;5039174;28;20216;-69
2023/12/10 09:45:57;;;;;;;2.22;0.90;;;9.80;99.90;;;;;;5038882;28;20228;-71
2023/12/10 09:48:25;;;;;;;3.10;1.17;;;9.90;99.90;;;;;;5038320;28;20322;-70
2023/12/10 09:50:53;;;;;;;3.53;0.98;;;9.90;99.90;;;;;;5039773;28;20220;-69
2023/12/10 09:53:22;;;;;;;4.03;1.90;;;9.90;99.90;;;;;;5034604;28;20782;-69
2023/12/10 09:55:50;;;;;;;1.98;1.83;;;9.90;99.90;;;;;;5036789;28;20204;-69
2023/12/10 09:58:19;;;;;;;3.30;1.95;;;9.90;99.90;;;;;;5037326;28;20431;-71
2023/12/10 10:00:47;;;;;;;5.95;1.40;;;10.20;99.90;;;;;;5037782;28;20219;-69
2023/12/10 10:03:15;;;;;;;3.70;1.58;;;10.30;99.90;;;;;;5038057;28;20257;-69
2023/12/10 10:05:45;;;;;;;5.20;1.85;;;10.40;99.90;;;;;;5037703;28;20228;-70
2023/12/10 10:08:13;;;;;;;3.70;1.27;;;10.40;99.90;;;;;;5036395;28;20243;-69
2023/12/10 10:10:41;;;;;;;4.30;1.40;;;10.40;99.90;;;;;;5037759;28;20272;-72
2023/12/10 10:13:09;;;;;;;3.17;1.05;;;10.50;99.90;;;;;;5038177;28;20196;-70
2023/12/10 10:15:38;;;;;;;4.00;0.95;;;10.70;99.90;;;;;;5036581;28;20197;-69
2023/12/10 10:18:07;;;;;;;7.57;1.48;;;10.80;99.90;;;;;;5038370;28;20224;-71
2023/12/10 10:20:35;;;;;;;2.78;1.00;;;10.80;99.90;;;;;;5039368;28;20258;-69
2023/12/10 10:23:04;;;;;;;1.80;1.00;;;10.80;99.90;;;;;;5036720;28;20299;-71
2023/12/10 10:25:32;;;;;;;6.47;2.03;;;11.20;99.90;;;;;;5017978;28;20714;-71
2023/12/10 10:28:00;;;;;;;3.90;1.52;;;11.50;99.90;;;;;;5039340;28;20731;-71
2023/12/10 10:30:28;;;;;;;2.60;0.88;;;11.60;99.90;;;;;;5037209;28;20216;-70
2023/12/10 10:33:01;;;;;;;3.95;1.27;;;11.60;99.90;;;;;;5036427;28;20597;-69
2023/12/10 10:35:29;;;;;;;5.28;1.33;;;11.50;99.90;;;;;;5037056;28;20850;-70
2023/12/10 10:37:58;;;;;;;5.75;2.75;;;11.50;99.90;;;;;;5037319;28;20235;-72
2023/12/10 10:40:26;;;;;;;1.85;1.15;;;11.50;99.90;;;;;;5035671;28;20213;-70
2023/12/10 10:42:58;;;;;;;3.53;1.25;;;11.50;99.90;;;;;;5036399;28;20298;-70
2023/12/10 10:45:26;;;;;;;2.83;1.00;;;11.50;99.90;;;;;;5018030;28;20228;-69
2023/12/10 10:47:54;;;;;;;4.50;1.55;;;11.40;99.90;;;;;;5037741;28;20227;-71
2023/12/10 10:50:25;;;;;;;2.30;1.20;;;11.50;99.90;;;;;;5035610;28;20890;-70
2023/12/10 10:52:54;;;;;;;5.30;1.67;;;11.60;99.90;;;;;;5036105;28;20217;-71
2023/12/10 10:55:24;;;;;;;3.22;1.15;;;11.50;99.90;;;;;;5037071;28;20462;-69
2023/12/10 10:57:52;;;;;;;4.57;1.40;;;11.60;99.90;;;;;;5037045;28;20238;-73
2023/12/10 11:00:36;;;;;;;3.50;0.90;;;11.60;99.90;;;;;;5037276;28;21700;-69
2023/12/10 11:03:08;;;;;;;2.33;1.30;;;11.60;99.90;;;;;;5038260;28;20294;-70
2023/12/10 11:05:39;;;;;;;2.58;1.00;;;11.60;99.90;;;;;;5034583;28;20609;-71
2023/12/10 11:08:08;;;;;;;3.60;1.10;;;11.70;99.90;;;;;;5036389;28;20741;-70
2023/12/10 11:10:40;;;;;;;2.75;1.23;;;11.70;99.90;;;;;;5036106;28;20686;-70
2023/12/10 11:13:08;;;;;;;3.65;1.92;;;11.60;99.90;;;;;;5037085;28;20208;-68
2023/12/10 11:15:36;;;;;;;2.95;1.38;;;11.70;99.90;;;;;;5036779;28;20208;-69
2023/12/10 11:18:06;;;;;;;4.43;1.05;;;11.90;99.90;;;;;;5037647;28;20314;-68
2023/12/10 11:20:41;;;;;;;7.43;1.90;;;12.00;99.90;;;;;;5037126;28;20203;-72
2023/12/10 11:23:11;;;;;;;3.53;1.48;;;12.20;99.90;;;;;;5035493;28;20687;-70
2023/12/10 11:25:40;;;;;;;3.50;0.98;;;12.40;99.90;;;;;;5036615;28;20227;-70
2023/12/10 11:28:11;;;;;;;5.38;1.20;;;12.60;99.90;;;;;;5036694;28;20216;-69
2023/12/10 11:30:40;;;;;;;4.10;1.95;;;12.40;99.90;;;;;;5037306;28;20681;-70
2023/12/10 11:33:09;;;;;;;3.10;1.50;;;12.20;99.90;;;;;;5036475;28;20246;-69
2023/12/10 11:35:37;;;;;;;1.42;0.90;;;11.90;99.90;;;;;;5035808;28;20282;-70
2023/12/10 11:38:07;;;;;;;5.25;1.58;;;11.70;99.90;;;;;;5038363;28;20251;-71
2023/12/10 11:40:35;;;;;;;4.80;1.08;;;11.60;99.90;;;;;;5039371;28;20234;-69
2023/12/10 11:43:04;;;;;;;3.20;1.00;;;11.50;99.90;;;;;;5038858;28;20220;-70
2023/12/10 11:45:33;;;;;;;1.65;1.00;;;11.50;99.90;;;;;;5038861;28;20229;-68
2023/12/10 11:48:03;;;;;;;2.78;0.80;;;11.40;99.90;;;;;;5038624;28;20255;-69
2023/12/10 11:50:32;;;;;;;3.47;1.17;;;11.40;99.90;;;;;;5038434;28;20216;-71
2023/12/10 11:53:01;;;;;;;2.08;1.17;;;11.60;99.90;;;;;;5038981;28;20686;-72
2023/12/10 11:55:31;;;;;;;5.15;1.50;;;11.70;99.90;;;;;;5019702;28;20678;-70
2023/12/10 11:58:00;;;;;;;2.92;1.58;;;11.70;99.90;;;;;;5038837;28;20333;-69
2023/12/10 12:00:28;;;;;;;2.95;1.77;;;11.60;99.90;;;;;;5039285;28;20682;-69
2023/12/10 12:02:56;;;;;;;7.40;1.90;;;11.60;99.90;;;;;;5037332;28;20678;-68
2023/12/10 12:05:24;;;;;;;4.55;1.25;;;11.70;99.90;;;;;;5039435;28;20215;-68
2023/12/10 12:07:52;;;;;;;4.25;1.80;;;11.80;99.90;;;;;;5039071;28;20232;-69
2023/12/10 12:10:21;;;;;;;2.88;0.82;;;11.80;99.90;;;;;;5037651;28;20216;-69
2023/12/10 12:12:51;;;;;;;4.55;1.25;;;11.60;99.90;;;;;;5036536;28;20219;-69
2023/12/10 12:15:20;;;;;;;3.85;1.40;;;11.50;99.90;;;;;;5038709;28;20848;-69
2023/12/10 12:17:48;;;;;;;1.40;0.88;;;11.40;99.90;;;;;;5038245;28;20255;-68
2023/12/10 12:20:17;;;;;;;5.90;1.13;;;11.30;99.90;;;;;;5038881;28;20310;-70
2023/12/10 12:22:46;;;;;;;3.72;1.30;;;11.20;99.90;;;;;;5038104;28;20759;-70
2023/12/10 12:25:16;;;;;;;2.05;1.08;;;11.10;99.90;;;;;;5036523;28;20211;-68
2023/12/10 12:27:45;;;;;;;3.75;1.30;;;11.00;99.90;;;;;;5035567;28;20904;-69
2023/12/10 12:30:16;;;;;;;4.63;1.15;;;11.10;99.90;;;;;;5037066;28;20205;-69
2023/12/10 12:32:44;;;;;;;2.65;1.60;;;11.00;99.90;;;;;;5039039;28;20298;-72
2023/12/10 12:35:13;;;;;;;5.20;0.80;;;11.00;99.90;;;;;;5040635;28;20208;-70
2023/12/10 12:37:41;;;;;;;3.55;1.17;;;11.00;99.90;;;;;;5038515;28;20216;-69
2023/12/10 12:40:10;;;;;;;2.25;1.15;;;11.00;99.90;;;;;;5041860;28;20204;-71
2023/12/10 12:42:38;;;;;;;1.73;0.90;;;10.90;99.90;;;;;;5041775;28;20258;-71
2023/12/10 12:45:08;;;;;;;3.60;1.30;;;10.80;99.90;;;;;;5041419;28;20273;-70
2023/12/10 12:47:37;;;;;;;7.72;1.73;;;10.70;99.90;;;;;;5042570;28;20224;-70
2023/12/10 12:50:07;;;;;;;5.03;1.30;;;10.70;99.90;;;;;;5041043;28;20219;-70
2023/12/10 12:52:36;;;;;;;2.80;1.13;;;10.70;99.90;;;;;;5041288;28;20222;-71
2023/12/10 12:55:05;;;;;;;1.52;1.00;;;10.70;99.90;;;;;;5040634;28;20211;-69
2023/12/10 12:57:33;;;;;;;3.80;1.40;;;10.70;99.90;;;;;;5042879;28;20303;-72
2023/12/10 13:00:04;;;;;;;2.58;1.23;;;10.60;99.90;;;;;;5041684;28;20788;-72
2023/12/10 13:02:32;;;;;;;6.38;1.80;;;10.60;99.90;;;;;;5042457;28;20219;-69